sensor_id;sensor_type;location;lat;lon;timestamp;pressure;altitude;pressure_sealevel;temperature;humidity
35806;BME280;21925;44.608;11.580;2022-09-09T00:00:20;101174.06;;;24.71;100.00
35806;BME280;21925;44.608;11.580;2022-09-09T00:06:17;101149.09;;;24.38;100.00
35806;BME280;21925;44.608;11.580;2022-09-09T00:11:43;101170.69;;;24.37;100.00
35806;BME280;21925;44.608;11.580;2022-09-09T00:14:18;101156.19;;;24.23;100.00
35806;BME280;21925;44.608;11.580;2022-09-09T00:16:52;101152.38;;;24.33;100.00
35806;BME280;21925;44.608;11.580;2022-09-09T00:19:26;101157.06;;;24.39;100.00
35806;BME280;21925;44.608;11.580;2022-09-09T00:27:47;101160.84;;;24.29;100.00
35806;BME280;21925;44.608;11.580;2022-09-09T00:32:44;101154.97;;;24.01;100.00
35806;BME280;21925;44.608;11.580;2022-09-09T00:37:37;101156.28;;;24.16;100.00
35806;BME280;21925;44.608;11.580;2022-09-09T00:40:23;101163.25;;;24.08;100.00
35806;BME280;21925;44.608;11.580;2022-09-09T00:48:34;101156.56;;;24.02;100.00
35806;BME280;21925;44.608;11.580;2022-09-09T00:54:22;101157.66;;;24.08;100.00
35806;BME280;21925;44.608;11.580;2022-09-09T00:59:46;101160.31;;;23.69;100.00
35806;BME280;21925;44.608;11.580;2022-09-09T01:05:45;101158.31;;;23.70;100.00
35806;BME280;21925;44.608;11.580;2022-09-09T01:10:54;101165.94;;;23.92;100.00
35806;BME280;21925;44.608;11.580;2022-09-09T01:13:27;101164.72;;;23.93;100.00
35806;BME280;21925;44.608;11.580;2022-09-09T01:16:02;101173.94;;;23.94;100.00
35806;BME280;21925;44.608;11.580;2022-09-09T01:18:44;101175.09;;;23.96;100.00
35806;BME280;21925;44.608;11.580;2022-09-09T01:28:55;101168.44;;;24.10;96.98
35806;BME280;21925;44.608;11.580;2022-09-09T01:31:36;101168.41;;;23.90;98.97
35806;BME280;21925;44.608;11.580;2022-09-09T01:34:09;101167.72;;;23.83;100.00
35806;BME280;21925;44.608;11.580;2022-09-09T01:36:47;101160.59;;;24.01;100.00
35806;BME280;21925;44.608;11.580;2022-09-09T01:39:15;101166.56;;;24.03;100.00
35806;BME280;21925;44.608;11.580;2022-09-09T01:41:43;101162.06;;;23.86;100.00
35806;BME280;21925;44.608;11.580;2022-09-09T01:44:12;101166.72;;;23.70;100.00
35806;BME280;21925;44.608;11.580;2022-09-09T01:46:40;101152.88;;;23.59;100.00
35806;BME280;21925;44.608;11.580;2022-09-09T01:49:12;101157.69;;;23.59;100.00
35806;BME280;21925;44.608;11.580;2022-09-09T01:51:39;101157.25;;;23.37;100.00
35806;BME280;21925;44.608;11.580;2022-09-09T01:54:10;101160.16;;;23.31;100.00
35806;BME280;21925;44.608;11.580;2022-09-09T01:56:47;101153.44;;;23.51;100.00
35806;BME280;21925;44.608;11.580;2022-09-09T02:02:04;101152.09;;;23.59;100.00
35806;BME280;21925;44.608;11.580;2022-09-09T02:04:39;101142.88;;;23.85;100.00
35806;BME280;21925;44.608;11.580;2022-09-09T02:10:11;101146.06;;;23.37;100.00
35806;BME280;21925;44.608;11.580;2022-09-09T02:12:45;101142.38;;;23.67;100.00
35806;BME280;21925;44.608;11.580;2022-09-09T02:15:20;101146.47;;;23.85;100.00
35806;BME280;21925;44.608;11.580;2022-09-09T02:17:51;101149.13;;;23.92;100.00
35806;BME280;21925;44.608;11.580;2022-09-09T02:20:19;101146.75;;;23.68;100.00
35806;BME280;21925;44.608;11.580;2022-09-09T02:22:50;101151.84;;;23.73;100.00
35806;BME280;21925;44.608;11.580;2022-09-09T02:25:22;101145.38;;;23.79;100.00
35806;BME280;21925;44.608;11.580;2022-09-09T02:27:51;101149.00;;;23.99;100.00
35806;BME280;21925;44.608;11.580;2022-09-09T02:30:18;101147.97;;;24.13;100.00
35806;BME280;21925;44.608;11.580;2022-09-09T02:32:52;101139.75;;;24.02;99.47
35806;BME280;21925;44.608;11.580;2022-09-09T02:35:27;101140.50;;;23.83;100.00
35806;BME280;21925;44.608;11.580;2022-09-09T02:38:00;101136.13;;;23.82;98.21
35806;BME280;21925;44.608;11.580;2022-09-09T02:40:28;101136.69;;;23.74;100.00
35806;BME280;21925;44.608;11.580;2022-09-09T02:42:59;101138.06;;;23.85;98.79
35806;BME280;21925;44.608;11.580;2022-09-09T02:45:41;101141.44;;;23.77;100.00
35806;BME280;21925;44.608;11.580;2022-09-09T02:48:26;101147.06;;;23.73;100.00
35806;BME280;21925;44.608;11.580;2022-09-09T02:51:07;101139.13;;;23.68;99.42
35806;BME280;21925;44.608;11.580;2022-09-09T02:53:49;101144.41;;;23.63;99.54
35806;BME280;21925;44.608;11.580;2022-09-09T02:56:21;101141.00;;;23.29;100.00
35806;BME280;21925;44.608;11.580;2022-09-09T02:58:54;101143.31;;;23.34;100.00
35806;BME280;21925;44.608;11.580;2022-09-09T03:01:21;101127.50;;;23.47;100.00
35806;BME280;21925;44.608;11.580;2022-09-09T03:03:47;101129.94;;;23.45;100.00
35806;BME280;21925;44.608;11.580;2022-09-09T03:06:15;101140.78;;;23.43;100.00
35806;BME280;21925;44.608;11.580;2022-09-09T03:08:45;101138.88;;;23.36;100.00
35806;BME280;21925;44.608;11.580;2022-09-09T03:11:11;101142.88;;;23.35;98.73
35806;BME280;21925;44.608;11.580;2022-09-09T03:13:37;101133.00;;;23.28;99.08
35806;BME280;21925;44.608;11.580;2022-09-09T03:16:04;101139.88;;;23.23;99.94
35806;BME280;21925;44.608;11.580;2022-09-09T03:18:35;101143.75;;;23.33;100.00
35806;BME280;21925;44.608;11.580;2022-09-09T03:21:00;101148.34;;;23.46;99.35
35806;BME280;21925;44.608;11.580;2022-09-09T03:23:28;101147.63;;;23.38;100.00
35806;BME280;21925;44.608;11.580;2022-09-09T03:25:55;101147.31;;;22.77;100.00
35806;BME280;21925;44.608;11.580;2022-09-09T03:28:32;101148.44;;;22.53;100.00
35806;BME280;21925;44.608;11.580;2022-09-09T03:31:02;101149.47;;;22.66;100.00
35806;BME280;21925;44.608;11.580;2022-09-09T03:33:32;101145.97;;;22.22;100.00
35806;BME280;21925;44.608;11.580;2022-09-09T03:36:00;101138.31;;;22.29;100.00
35806;BME280;21925;44.608;11.580;2022-09-09T03:38:26;101144.06;;;22.52;99.45
35806;BME280;21925;44.608;11.580;2022-09-09T03:40:53;101148.63;;;22.69;98.97
35806;BME280;21925;44.608;11.580;2022-09-09T03:43:21;101145.69;;;22.46;99.70
35806;BME280;21925;44.608;11.580;2022-09-09T03:45:47;101131.63;;;22.20;100.00
35806;BME280;21925;44.608;11.580;2022-09-09T03:48:14;101139.47;;;22.35;100.00
35806;BME280;21925;44.608;11.580;2022-09-09T03:50:51;101142.84;;;22.53;100.00
35806;BME280;21925;44.608;11.580;2022-09-09T03:53:19;101134.38;;;22.60;100.00
35806;BME280;21925;44.608;11.580;2022-09-09T03:55:48;101138.50;;;22.49;100.00
35806;BME280;21925;44.608;11.580;2022-09-09T03:58:15;101144.66;;;22.33;100.00
35806;BME280;21925;44.608;11.580;2022-09-09T04:00:41;101148.09;;;22.48;100.00
35806;BME280;21925;44.608;11.580;2022-09-09T04:03:09;101143.31;;;22.45;100.00
35806;BME280;21925;44.608;11.580;2022-09-09T04:05:35;101139.47;;;22.35;100.00
35806;BME280;21925;44.608;11.580;2022-09-09T04:08:06;101138.91;;;22.10;100.00
35806;BME280;21925;44.608;11.580;2022-09-09T04:10:32;101144.00;;;21.78;100.00
35806;BME280;21925;44.608;11.580;2022-09-09T04:12:58;101138.25;;;21.96;100.00
35806;BME280;21925;44.608;11.580;2022-09-09T04:15:25;101137.25;;;22.16;100.00
35806;BME280;21925;44.608;11.580;2022-09-09T04:17:51;101132.84;;;22.15;100.00
35806;BME280;21925;44.608;11.580;2022-09-09T04:20:16;101139.50;;;22.28;100.00
35806;BME280;21925;44.608;11.580;2022-09-09T04:22:42;101119.78;;;21.68;100.00
35806;BME280;21925;44.608;11.580;2022-09-09T04:25:08;101142.59;;;21.57;100.00
35806;BME280;21925;44.608;11.580;2022-09-09T04:27:34;101133.41;;;21.60;100.00
35806;BME280;21925;44.608;11.580;2022-09-09T04:30:00;101141.50;;;21.91;100.00
35806;BME280;21925;44.608;11.580;2022-09-09T04:32:29;101142.44;;;22.14;100.00
35806;BME280;21925;44.608;11.580;2022-09-09T04:34:54;101144.09;;;22.08;100.00
35806;BME280;21925;44.608;11.580;2022-09-09T04:37:20;101130.44;;;22.17;99.92
35806;BME280;21925;44.608;11.580;2022-09-09T04:39:46;101134.78;;;22.22;97.36
35806;BME280;21925;44.608;11.580;2022-09-09T04:42:11;101139.56;;;22.21;99.78
35806;BME280;21925;44.608;11.580;2022-09-09T04:44:38;101139.00;;;21.60;100.00
35806;BME280;21925;44.608;11.580;2022-09-09T04:47:05;101121.00;;;21.64;100.00
35806;BME280;21925;44.608;11.580;2022-09-09T04:49:31;101125.47;;;21.98;100.00
35806;BME280;21925;44.608;11.580;2022-09-09T04:51:58;101133.44;;;22.00;100.00
35806;BME280;21925;44.608;11.580;2022-09-09T04:54:23;101133.97;;;22.25;99.17
35806;BME280;21925;44.608;11.580;2022-09-09T04:56:50;101125.63;;;22.18;96.63
35806;BME280;21925;44.608;11.580;2022-09-09T04:59:16;101135.66;;;22.15;100.00
35806;BME280;21925;44.608;11.580;2022-09-09T05:01:45;101119.19;;;22.24;100.00
35806;BME280;21925;44.608;11.580;2022-09-09T05:04:11;101128.25;;;22.39;99.80
35806;BME280;21925;44.608;11.580;2022-09-09T05:06:37;101118.06;;;22.18;100.00
35806;BME280;21925;44.608;11.580;2022-09-09T05:09:03;101120.25;;;22.41;100.00
35806;BME280;21925;44.608;11.580;2022-09-09T05:11:31;101117.75;;;22.46;100.00
35806;BME280;21925;44.608;11.580;2022-09-09T05:14:04;101115.53;;;22.34;100.00
35806;BME280;21925;44.608;11.580;2022-09-09T05:16:31;101134.56;;;22.43;100.00
35806;BME280;21925;44.608;11.580;2022-09-09T05:18:57;101130.91;;;22.49;100.00
35806;BME280;21925;44.608;11.580;2022-09-09T05:21:24;101136.78;;;22.58;100.00
35806;BME280;21925;44.608;11.580;2022-09-09T05:23:54;101148.69;;;22.62;100.00
35806;BME280;21925;44.608;11.580;2022-09-09T05:26:21;101149.34;;;22.73;100.00
35806;BME280;21925;44.608;11.580;2022-09-09T05:28:49;101147.47;;;22.33;100.00
35806;BME280;21925;44.608;11.580;2022-09-09T05:31:16;101145.44;;;22.34;100.00
35806;BME280;21925;44.608;11.580;2022-09-09T05:33:45;101149.78;;;22.38;100.00
35806;BME280;21925;44.608;11.580;2022-09-09T05:36:14;101141.25;;;22.52;100.00
35806;BME280;21925;44.608;11.580;2022-09-09T05:38:41;101148.69;;;22.62;100.00
35806;BME280;21925;44.608;11.580;2022-09-09T05:41:08;101162.47;;;22.46;100.00
35806;BME280;21925;44.608;11.580;2022-09-09T05:43:36;101159.03;;;22.65;100.00
35806;BME280;21925;44.608;11.580;2022-09-09T05:46:14;101155.63;;;22.84;100.00
35806;BME280;21925;44.608;11.580;2022-09-09T05:48:42;101167.44;;;22.32;100.00
35806;BME280;21925;44.608;11.580;2022-09-09T05:51:11;101165.56;;;22.55;100.00
35806;BME280;21925;44.608;11.580;2022-09-09T05:53:42;101165.44;;;22.65;100.00
35806;BME280;21925;44.608;11.580;2022-09-09T05:56:14;101156.34;;;22.58;100.00
35806;BME280;21925;44.608;11.580;2022-09-09T05:58:41;101167.34;;;22.72;100.00
35806;BME280;21925;44.608;11.580;2022-09-09T06:01:16;101166.38;;;23.15;100.00
35806;BME280;21925;44.608;11.580;2022-09-09T06:03:44;101174.28;;;22.90;100.00
35806;BME280;21925;44.608;11.580;2022-09-09T06:06:12;101175.38;;;23.00;100.00
35806;BME280;21925;44.608;11.580;2022-09-09T06:08:40;101168.66;;;23.24;100.00
35806;BME280;21925;44.608;11.580;2022-09-09T06:13:38;101167.56;;;23.18;100.00
35806;BME280;21925;44.608;11.580;2022-09-09T06:16:09;101163.38;;;23.29;100.00
35806;BME280;21925;44.608;11.580;2022-09-09T06:18:38;101167.00;;;23.52;100.00
35806;BME280;21925;44.608;11.580;2022-09-09T06:21:18;101172.72;;;23.19;100.00
35806;BME280;21925;44.608;11.580;2022-09-09T06:23:48;101163.13;;;23.20;100.00
35806;BME280;21925;44.608;11.580;2022-09-09T06:26:19;101158.97;;;23.54;100.00
35806;BME280;21925;44.608;11.580;2022-09-09T06:28:49;101162.47;;;23.62;100.00
35806;BME280;21925;44.608;11.580;2022-09-09T06:31:17;101157.81;;;23.78;100.00
35806;BME280;21925;44.608;11.580;2022-09-09T06:33:49;101165.44;;;24.20;100.00
35806;BME280;21925;44.608;11.580;2022-09-09T06:36:18;101149.22;;;24.31;100.00
35806;BME280;21925;44.608;11.580;2022-09-09T06:38:45;101151.66;;;24.29;100.00
35806;BME280;21925;44.608;11.580;2022-09-09T06:41:14;101154.28;;;23.97;100.00
35806;BME280;21925;44.608;11.580;2022-09-09T06:43:42;101163.00;;;23.99;100.00
35806;BME280;21925;44.608;11.580;2022-09-09T06:46:12;101159.63;;;24.30;100.00
35806;BME280;21925;44.608;11.580;2022-09-09T06:48:40;101164.88;;;24.51;100.00
35806;BME280;21925;44.608;11.580;2022-09-09T06:53:38;101151.69;;;24.68;100.00
35806;BME280;21925;44.608;11.580;2022-09-09T06:58:39;101169.66;;;25.25;100.00
35806;BME280;21925;44.608;11.580;2022-09-09T07:01:20;101160.19;;;25.19;100.00
35806;BME280;21925;44.608;11.580;2022-09-09T14:17:21;101064.94;;;31.62;58.82
35806;BME280;21925;44.608;11.580;2022-09-09T14:19:47;101040.38;;;31.27;59.05
35806;BME280;21925;44.608;11.580;2022-09-09T14:22:13;101059.16;;;31.48;59.04
35806;BME280;21925;44.608;11.580;2022-09-09T14:24:39;101065.28;;;31.55;59.35
35806;BME280;21925;44.608;11.580;2022-09-09T14:27:06;101058.72;;;31.17;58.71
35806;BME280;21925;44.608;11.580;2022-09-09T14:29:31;101071.19;;;30.60;60.06
35806;BME280;21925;44.608;11.580;2022-09-09T14:31:58;101066.63;;;30.54;59.63
35806;BME280;21925;44.608;11.580;2022-09-09T14:34:26;101052.81;;;30.20;59.87
35806;BME280;21925;44.608;11.580;2022-09-09T14:36:52;101045.72;;;30.42;59.84
35806;BME280;21925;44.608;11.580;2022-09-09T14:39:18;101056.66;;;30.76;58.83
35806;BME280;21925;44.608;11.580;2022-09-09T14:41:43;101055.88;;;31.17;59.36
35806;BME280;21925;44.608;11.580;2022-09-09T14:44:09;101062.59;;;31.28;59.60
35806;BME280;21925;44.608;11.580;2022-09-09T14:46:35;101058.84;;;30.81;59.04
35806;BME280;21925;44.608;11.580;2022-09-09T14:49:01;101062.66;;;30.69;60.19
35806;BME280;21925;44.608;11.580;2022-09-09T14:51:26;101068.47;;;30.66;59.58
35806;BME280;21925;44.608;11.580;2022-09-09T14:53:56;101054.56;;;30.85;58.67
35806;BME280;21925;44.608;11.580;2022-09-09T14:56:25;101057.56;;;31.23;58.18
35806;BME280;21925;44.608;11.580;2022-09-09T14:58:55;101061.25;;;31.15;56.71
35806;BME280;21925;44.608;11.580;2022-09-09T15:01:22;101055.63;;;30.97;56.69
35806;BME280;21925;44.608;11.580;2022-09-09T15:03:50;101049.81;;;30.32;56.96
35806;BME280;21925;44.608;11.580;2022-09-09T15:06:17;101057.22;;;30.30;57.57
35806;BME280;21925;44.608;11.580;2022-09-09T15:08:44;101067.44;;;30.36;59.12
35806;BME280;21925;44.608;11.580;2022-09-09T15:11:11;101076.38;;;30.35;59.29
35806;BME280;21925;44.608;11.580;2022-09-09T15:13:40;101084.69;;;30.38;58.71
35806;BME280;21925;44.608;11.580;2022-09-09T15:16:08;101073.88;;;30.55;58.96
35806;BME280;21925;44.608;11.580;2022-09-09T15:18:34;101075.28;;;30.41;58.39
35806;BME280;21925;44.608;11.580;2022-09-09T15:21:08;101068.69;;;30.08;58.33
35806;BME280;21925;44.608;11.580;2022-09-09T15:23:35;101069.28;;;29.77;58.68
35806;BME280;21925;44.608;11.580;2022-09-09T15:26:02;101071.50;;;29.64;59.09
35806;BME280;21925;44.608;11.580;2022-09-09T15:28:38;101083.72;;;29.61;57.91
35806;BME280;21925;44.608;11.580;2022-09-09T15:31:16;101084.06;;;29.81;57.35
35806;BME280;21925;44.608;11.580;2022-09-09T15:33:48;101084.81;;;29.63;57.17
35806;BME280;21925;44.608;11.580;2022-09-09T15:36:23;101077.13;;;29.73;57.96
35806;BME280;21925;44.608;11.580;2022-09-09T15:38:50;101078.41;;;29.90;57.70
35806;BME280;21925;44.608;11.580;2022-09-09T15:41:17;101074.16;;;29.85;58.18
35806;BME280;21925;44.608;11.580;2022-09-09T15:43:48;101085.34;;;29.97;58.16
35806;BME280;21925;44.608;11.580;2022-09-09T15:46:30;101089.44;;;30.05;58.66
35806;BME280;21925;44.608;11.580;2022-09-09T15:49:06;101092.75;;;30.13;59.61
35806;BME280;21925;44.608;11.580;2022-09-09T15:51:32;101090.06;;;30.00;59.87
35806;BME280;21925;44.608;11.580;2022-09-09T15:53:59;101092.75;;;29.95;59.44
35806;BME280;21925;44.608;11.580;2022-09-09T15:56:26;101095.09;;;30.05;59.20
35806;BME280;21925;44.608;11.580;2022-09-09T15:58:54;101102.94;;;30.37;58.80
35806;BME280;21925;44.608;11.580;2022-09-09T16:01:20;101100.41;;;30.75;57.65
35806;BME280;21925;44.608;11.580;2022-09-09T16:03:46;101103.63;;;30.91;57.23
35806;BME280;21925;44.608;11.580;2022-09-09T16:06:17;101102.19;;;30.96;57.13
35806;BME280;21925;44.608;11.580;2022-09-09T16:08:46;101102.88;;;30.82;57.43
35806;BME280;21925;44.608;11.580;2022-09-09T16:11:29;101102.03;;;31.08;57.74
35806;BME280;21925;44.608;11.580;2022-09-09T16:13:56;101108.66;;;31.38;57.56
35806;BME280;21925;44.608;11.580;2022-09-09T16:16:26;101105.09;;;31.84;57.05
35806;BME280;21925;44.608;11.580;2022-09-09T16:18:55;101106.00;;;31.34;60.44
35806;BME280;21925;44.608;11.580;2022-09-09T16:21:23;101100.34;;;31.34;62.62
35806;BME280;21925;44.608;11.580;2022-09-09T16:23:52;101113.53;;;31.05;63.88
35806;BME280;21925;44.608;11.580;2022-09-09T16:26:19;101123.59;;;30.97;64.54
35806;BME280;21925;44.608;11.580;2022-09-09T16:28:45;101129.88;;;31.10;64.24
35806;BME280;21925;44.608;11.580;2022-09-09T16:31:18;101125.28;;;31.54;62.44
35806;BME280;21925;44.608;11.580;2022-09-09T16:33:51;101128.94;;;31.45;63.90
35806;BME280;21925;44.608;11.580;2022-09-09T16:36:21;101131.00;;;30.94;65.19
35806;BME280;21925;44.608;11.580;2022-09-09T16:38:47;101132.19;;;30.25;68.79
35806;BME280;21925;44.608;11.580;2022-09-09T16:41:17;101141.56;;;29.87;71.29
35806;BME280;21925;44.608;11.580;2022-09-09T16:43:44;101132.91;;;29.72;70.67
35806;BME280;21925;44.608;11.580;2022-09-09T16:46:18;101116.41;;;29.31;72.02
35806;BME280;21925;44.608;11.580;2022-09-09T16:48:48;101119.56;;;29.33;71.69
35806;BME280;21925;44.608;11.580;2022-09-09T16:51:26;101109.78;;;29.16;70.90
35806;BME280;21925;44.608;11.580;2022-09-09T16:53:53;101120.34;;;28.95;71.38
35806;BME280;21925;44.608;11.580;2022-09-09T16:56:22;101109.50;;;28.93;71.69
35806;BME280;21925;44.608;11.580;2022-09-09T16:58:51;101112.75;;;28.61;72.68
35806;BME280;21925;44.608;11.580;2022-09-09T17:01:18;101103.50;;;28.61;72.79
35806;BME280;21925;44.608;11.580;2022-09-09T17:03:54;101109.84;;;28.52;73.57
35806;BME280;21925;44.608;11.580;2022-09-09T17:06:30;101106.59;;;28.54;73.40
35806;BME280;21925;44.608;11.580;2022-09-09T17:08:58;101093.00;;;28.40;74.19
35806;BME280;21925;44.608;11.580;2022-09-09T17:11:25;101096.34;;;28.26;75.55
35806;BME280;21925;44.608;11.580;2022-09-09T17:13:52;101097.38;;;28.20;75.79
35806;BME280;21925;44.608;11.580;2022-09-09T17:16:21;101107.53;;;28.17;75.47
35806;BME280;21925;44.608;11.580;2022-09-09T17:18:49;101103.78;;;28.54;73.51
35806;BME280;21925;44.608;11.580;2022-09-09T17:21:17;101107.06;;;28.31;74.17
35806;BME280;21925;44.608;11.580;2022-09-09T17:23:43;101103.13;;;28.16;74.39
35806;BME280;21925;44.608;11.580;2022-09-09T17:26:14;101114.97;;;27.90;76.38
35806;BME280;21925;44.608;11.580;2022-09-09T17:28:41;101108.59;;;27.77;76.93
35806;BME280;21925;44.608;11.580;2022-09-09T17:31:10;101113.66;;;27.69;76.13
35806;BME280;21925;44.608;11.580;2022-09-09T17:33:38;101118.78;;;27.62;76.08
35806;BME280;21925;44.608;11.580;2022-09-09T17:36:15;101112.81;;;27.35;77.13
35806;BME280;21925;44.608;11.580;2022-09-09T17:38:41;101105.47;;;27.25;76.50
35806;BME280;21925;44.608;11.580;2022-09-09T17:41:25;101098.50;;;27.17;76.71
35806;BME280;21925;44.608;11.580;2022-09-09T17:43:52;101104.13;;;27.17;75.92
35806;BME280;21925;44.608;11.580;2022-09-09T17:46:23;101116.50;;;27.07;76.00
35806;BME280;21925;44.608;11.580;2022-09-09T17:48:52;101119.75;;;26.93;76.44
35806;BME280;21925;44.608;11.580;2022-09-09T17:51:21;101112.75;;;26.73;77.56
35806;BME280;21925;44.608;11.580;2022-09-09T17:53:53;101129.50;;;26.76;77.67
35806;BME280;21925;44.608;11.580;2022-09-09T17:56:21;101126.00;;;26.60;78.32
35806;BME280;21925;44.608;11.580;2022-09-09T17:58:49;101113.50;;;26.49;78.74
35806;BME280;21925;44.608;11.580;2022-09-09T18:01:20;101122.44;;;26.44;78.69
35806;BME280;21925;44.608;11.580;2022-09-09T18:03:48;101125.91;;;26.35;79.95
35806;BME280;21925;44.608;11.580;2022-09-09T18:06:17;101125.50;;;26.21;80.24
35806;BME280;21925;44.608;11.580;2022-09-09T18:08:51;101134.69;;;26.21;80.41
35806;BME280;21925;44.608;11.580;2022-09-09T18:11:20;101134.47;;;26.16;79.72
35806;BME280;21925;44.608;11.580;2022-09-09T18:13:50;101144.25;;;26.11;80.18
35806;BME280;21925;44.608;11.580;2022-09-09T18:16:16;101142.56;;;26.14;79.31
35806;BME280;21925;44.608;11.580;2022-09-09T18:18:46;101125.00;;;26.10;80.69
35806;BME280;21925;44.608;11.580;2022-09-09T18:21:12;101143.13;;;26.21;79.90
35806;BME280;21925;44.608;11.580;2022-09-09T18:23:40;101148.34;;;26.23;80.42
35806;BME280;21925;44.608;11.580;2022-09-09T18:26:12;101141.91;;;26.22;79.93
35806;BME280;21925;44.608;11.580;2022-09-09T18:28:40;101149.25;;;26.04;81.53
35806;BME280;21925;44.608;11.580;2022-09-09T18:31:07;101148.41;;;25.91;79.39
35806;BME280;21925;44.608;11.580;2022-09-09T18:33:35;101155.25;;;25.58;83.15
35806;BME280;21925;44.608;11.580;2022-09-09T18:36:13;101147.31;;;25.53;83.77
35806;BME280;21925;44.608;11.580;2022-09-09T18:38:49;101161.22;;;25.44;85.16
35806;BME280;21925;44.608;11.580;2022-09-09T18:41:38;101156.06;;;25.23;86.92
35806;BME280;21925;44.608;11.580;2022-09-09T18:44:17;101144.00;;;25.07;87.31
35806;BME280;21925;44.608;11.580;2022-09-09T18:46:49;101158.88;;;25.23;87.87
35806;BME280;21925;44.608;11.580;2022-09-09T18:49:19;101164.94;;;25.22;88.62
35806;BME280;21925;44.608;11.580;2022-09-09T18:51:47;101166.84;;;25.25;88.64
35806;BME280;21925;44.608;11.580;2022-09-09T18:54:25;101158.53;;;25.02;91.73
35806;BME280;21925;44.608;11.580;2022-09-09T18:56:53;101163.09;;;24.96;93.21
35806;BME280;21925;44.608;11.580;2022-09-09T18:59:21;101178.41;;;24.92;90.76
35806;BME280;21925;44.608;11.580;2022-09-09T19:01:49;101180.38;;;24.75;93.11
35806;BME280;21925;44.608;11.580;2022-09-09T19:04:15;101181.16;;;24.76;93.54
35806;BME280;21925;44.608;11.580;2022-09-09T19:06:43;101178.72;;;24.78;94.51
35806;BME280;21925;44.608;11.580;2022-09-09T19:09:16;101175.94;;;24.58;97.08
35806;BME280;21925;44.608;11.580;2022-09-09T19:11:42;101184.69;;;24.60;95.31
35806;BME280;21925;44.608;11.580;2022-09-09T19:14:10;101183.19;;;24.56;94.73
35806;BME280;21925;44.608;11.580;2022-09-09T19:16:37;101184.19;;;24.46;95.64
35806;BME280;21925;44.608;11.580;2022-09-09T19:19:11;101181.84;;;24.41;95.96
35806;BME280;21925;44.608;11.580;2022-09-09T19:21:38;101187.28;;;24.28;99.06
35806;BME280;21925;44.608;11.580;2022-09-09T19:24:08;101168.00;;;24.11;99.82
35806;BME280;21925;44.608;11.580;2022-09-09T19:26:37;101195.34;;;24.26;100.00
35806;BME280;21925;44.608;11.580;2022-09-09T19:29:06;101185.31;;;24.06;100.00
35806;BME280;21925;44.608;11.580;2022-09-09T19:31:32;101198.09;;;24.30;98.93
35806;BME280;21925;44.608;11.580;2022-09-09T19:33:59;101198.22;;;24.23;100.00
35806;BME280;21925;44.608;11.580;2022-09-09T19:36:25;101198.47;;;24.09;100.00
35806;BME280;21925;44.608;11.580;2022-09-09T19:38:54;101193.13;;;23.95;100.00
35806;BME280;21925;44.608;11.580;2022-09-09T19:41:22;101203.34;;;24.05;100.00
35806;BME280;21925;44.608;11.580;2022-09-09T19:43:49;101199.34;;;24.06;100.00
35806;BME280;21925;44.608;11.580;2022-09-09T19:46:16;101201.81;;;24.01;100.00
35806;BME280;21925;44.608;11.580;2022-09-09T19:48:44;101193.81;;;23.99;100.00
35806;BME280;21925;44.608;11.580;2022-09-09T19:53:39;101202.44;;;23.62;100.00
35806;BME280;21925;44.608;11.580;2022-09-09T19:56:06;101207.66;;;23.60;100.00
35806;BME280;21925;44.608;11.580;2022-09-09T19:58:37;101212.16;;;23.54;100.00
35806;BME280;21925;44.608;11.580;2022-09-09T20:01:27;101212.75;;;23.69;100.00
35806;BME280;21925;44.608;11.580;2022-09-09T20:03:54;101214.47;;;23.59;100.00
35806;BME280;21925;44.608;11.580;2022-09-09T20:06:23;101216.69;;;23.71;100.00
35806;BME280;21925;44.608;11.580;2022-09-09T20:08:49;101210.47;;;23.60;100.00
35806;BME280;21925;44.608;11.580;2022-09-09T20:11:16;101204.75;;;23.67;100.00
35806;BME280;21925;44.608;11.580;2022-09-09T20:13:43;101209.63;;;23.63;100.00
35806;BME280;21925;44.608;11.580;2022-09-09T20:16:11;101214.97;;;23.54;100.00
35806;BME280;21925;44.608;11.580;2022-09-09T20:18:41;101209.38;;;23.54;100.00
35806;BME280;21925;44.608;11.580;2022-09-09T20:21:13;101208.16;;;23.55;100.00
35806;BME280;21925;44.608;11.580;2022-09-09T20:23:40;101211.84;;;23.49;100.00
35806;BME280;21925;44.608;11.580;2022-09-09T20:26:08;101209.94;;;23.42;100.00
35806;BME280;21925;44.608;11.580;2022-09-09T20:28:35;101217.97;;;23.40;100.00
35806;BME280;21925;44.608;11.580;2022-09-09T20:31:07;101209.09;;;23.45;100.00
35806;BME280;21925;44.608;11.580;2022-09-09T20:33:34;101216.44;;;23.36;100.00
35806;BME280;21925;44.608;11.580;2022-09-09T20:38:52;101213.09;;;22.88;100.00
35806;BME280;21925;44.608;11.580;2022-09-09T20:41:20;101224.22;;;22.92;100.00
35806;BME280;21925;44.608;11.580;2022-09-09T20:43:48;101220.25;;;22.89;100.00
35806;BME280;21925;44.608;11.580;2022-09-09T20:46:20;101204.69;;;22.88;100.00
35806;BME280;21925;44.608;11.580;2022-09-09T20:48:48;101217.72;;;22.98;100.00
35806;BME280;21925;44.608;11.580;2022-09-09T20:51:16;101224.97;;;22.96;100.00
35806;BME280;21925;44.608;11.580;2022-09-09T20:53:44;101214.72;;;22.82;100.00
35806;BME280;21925;44.608;11.580;2022-09-09T20:56:10;101231.47;;;22.86;100.00
35806;BME280;21925;44.608;11.580;2022-09-09T20:58:36;101232.06;;;23.04;100.00
35806;BME280;21925;44.608;11.580;2022-09-09T21:01:04;101237.97;;;22.79;100.00